sensor_id;sensor_type;location;lat;lon;timestamp;temperature;humidity
52044;DHT22;38053;53.100;6.078;2023-09-18T00:00:51;16.20;99.90
52044;DHT22;38053;53.100;6.078;2023-09-18T00:03:18;16.20;99.90
52044;DHT22;38053;53.100;6.078;2023-09-18T00:05:46;16.10;99.90
52044;DHT22;38053;53.100;6.078;2023-09-18T00:08:13;16.10;99.90
52044;DHT22;38053;53.100;6.078;2023-09-18T00:10:39;16.10;99.90
52044;DHT22;38053;53.100;6.078;2023-09-18T00:13:05;16.10;99.90
52044;DHT22;38053;53.100;6.078;2023-09-18T00:15:39;16.10;99.90
52044;DHT22;38053;53.100;6.078;2023-09-18T00:18:06;16.00;99.90
52044;DHT22;38053;53.100;6.078;2023-09-18T00:20:33;16.00;99.90
52044;DHT22;38053;53.100;6.078;2023-09-18T00:22:59;16.00;99.90
52044;DHT22;38053;53.100;6.078;2023-09-18T00:25:24;16.00;99.90
52044;DHT22;38053;53.100;6.078;2023-09-18T00:27:50;16.00;99.90
52044;DHT22;38053;53.100;6.078;2023-09-18T00:30:17;16.00;99.90
52044;DHT22;38053;53.100;6.078;2023-09-18T00:32:43;16.00;99.90
52044;DHT22;38053;53.100;6.078;2023-09-18T00:35:09;16.00;99.90
52044;DHT22;38053;53.100;6.078;2023-09-18T00:37:36;16.00;99.90
52044;DHT22;38053;53.100;6.078;2023-09-18T00:40:02;16.00;99.90
52044;DHT22;38053;53.100;6.078;2023-09-18T00:42:30;16.00;99.90
52044;DHT22;38053;53.100;6.078;2023-09-18T00:44:56;16.00;99.90
52044;DHT22;38053;53.100;6.078;2023-09-18T00:47:28;16.00;99.90
52044;DHT22;38053;53.100;6.078;2023-09-18T00:49:57;16.00;99.90
52044;DHT22;38053;53.100;6.078;2023-09-18T00:52:23;16.00;99.90
52044;DHT22;38053;53.100;6.078;2023-09-18T00:54:50;16.00;99.90
52044;DHT22;38053;53.100;6.078;2023-09-18T00:57:16;16.00;99.90
52044;DHT22;38053;53.100;6.078;2023-09-18T00:59:43;16.00;99.90
52044;DHT22;38053;53.100;6.078;2023-09-18T01:02:10;16.00;99.90
52044;DHT22;38053;53.100;6.078;2023-09-18T01:04:37;16.00;99.90
52044;DHT22;38053;53.100;6.078;2023-09-18T01:07:03;15.90;99.90
52044;DHT22;38053;53.100;6.078;2023-09-18T01:09:33;15.90;99.90
52044;DHT22;38053;53.100;6.078;2023-09-18T01:12:17;15.90;99.90
52044;DHT22;38053;53.100;6.078;2023-09-18T01:17:23;15.80;99.90
52044;DHT22;38053;53.100;6.078;2023-09-18T01:19:49;15.90;99.90
52044;DHT22;38053;53.100;6.078;2023-09-18T01:22:16;15.90;99.90
52044;DHT22;38053;53.100;6.078;2023-09-18T01:24:44;15.90;99.90
52044;DHT22;38053;53.100;6.078;2023-09-18T01:27:14;15.80;99.90
52044;DHT22;38053;53.100;6.078;2023-09-18T01:29:40;15.80;99.90
52044;DHT22;38053;53.100;6.078;2023-09-18T01:32:06;15.80;99.90
52044;DHT22;38053;53.100;6.078;2023-09-18T01:34:47;15.80;99.90
52044;DHT22;38053;53.100;6.078;2023-09-18T01:37:15;15.80;99.90
52044;DHT22;38053;53.100;6.078;2023-09-18T01:39:42;15.80;99.90
52044;DHT22;38053;53.100;6.078;2023-09-18T01:42:09;15.80;99.90
52044;DHT22;38053;53.100;6.078;2023-09-18T01:44:36;15.80;99.90
52044;DHT22;38053;53.100;6.078;2023-09-18T01:47:15;15.80;99.90
52044;DHT22;38053;53.100;6.078;2023-09-18T01:49:42;15.80;99.90
52044;DHT22;38053;53.100;6.078;2023-09-18T01:52:09;15.80;99.90
52044;DHT22;38053;53.100;6.078;2023-09-18T01:54:35;15.80;99.90
52044;DHT22;38053;53.100;6.078;2023-09-18T01:57:02;15.80;99.90
52044;DHT22;38053;53.100;6.078;2023-09-18T01:59:28;15.90;99.90
52044;DHT22;38053;53.100;6.078;2023-09-18T02:01:54;15.90;99.90
52044;DHT22;38053;53.100;6.078;2023-09-18T02:04:21;15.90;99.90
52044;DHT22;38053;53.100;6.078;2023-09-18T02:06:49;15.90;99.90
52044;DHT22;38053;53.100;6.078;2023-09-18T02:09:14;15.90;99.90
52044;DHT22;38053;53.100;6.078;2023-09-18T02:11:42;15.90;99.90
52044;DHT22;38053;53.100;6.078;2023-09-18T02:14:09;16.00;99.90
52044;DHT22;38053;53.100;6.078;2023-09-18T02:16:38;16.00;99.90
52044;DHT22;38053;53.100;6.078;2023-09-18T02:19:08;16.00;99.90
52044;DHT22;38053;53.100;6.078;2023-09-18T02:21:34;16.00;99.90
52044;DHT22;38053;53.100;6.078;2023-09-18T02:24:00;16.10;99.90
52044;DHT22;38053;53.100;6.078;2023-09-18T02:26:27;16.10;99.90
52044;DHT22;38053;53.100;6.078;2023-09-18T02:28:54;16.10;99.90
52044;DHT22;38053;53.100;6.078;2023-09-18T02:31:20;16.10;99.90
52044;DHT22;38053;53.100;6.078;2023-09-18T02:33:47;16.10;99.90
52044;DHT22;38053;53.100;6.078;2023-09-18T02:36:15;16.10;99.90
52044;DHT22;38053;53.100;6.078;2023-09-18T02:38:42;16.10;99.90
52044;DHT22;38053;53.100;6.078;2023-09-18T02:41:09;16.10;99.90
52044;DHT22;38053;53.100;6.078;2023-09-18T02:43:35;16.10;99.90
52044;DHT22;38053;53.100;6.078;2023-09-18T02:46:02;16.10;99.90
52044;DHT22;38053;53.100;6.078;2023-09-18T02:48:28;16.10;99.90
52044;DHT22;38053;53.100;6.078;2023-09-18T02:50:54;16.10;99.90
52044;DHT22;38053;53.100;6.078;2023-09-18T02:53:21;16.10;99.90
52044;DHT22;38053;53.100;6.078;2023-09-18T02:55:51;16.10;99.90
52044;DHT22;38053;53.100;6.078;2023-09-18T02:58:18;16.10;99.90
52044;DHT22;38053;53.100;6.078;2023-09-18T03:00:49;16.10;99.90
52044;DHT22;38053;53.100;6.078;2023-09-18T03:03:16;16.20;99.90
52044;DHT22;38053;53.100;6.078;2023-09-18T03:05:42;16.20;99.90
52044;DHT22;38053;53.100;6.078;2023-09-18T03:08:09;16.20;99.90
52044;DHT22;38053;53.100;6.078;2023-09-18T03:10:40;16.20;99.90
52044;DHT22;38053;53.100;6.078;2023-09-18T03:13:07;16.20;99.90
52044;DHT22;38053;53.100;6.078;2023-09-18T03:15:34;16.30;99.90
52044;DHT22;38053;53.100;6.078;2023-09-18T03:18:02;16.30;99.90
52044;DHT22;38053;53.100;6.078;2023-09-18T03:20:30;16.30;99.90
52044;DHT22;38053;53.100;6.078;2023-09-18T03:22:58;16.30;99.90
52044;DHT22;38053;53.100;6.078;2023-09-18T03:25:25;16.30;99.90
52044;DHT22;38053;53.100;6.078;2023-09-18T03:27:55;16.30;99.90
52044;DHT22;38053;53.100;6.078;2023-09-18T03:30:21;16.40;99.90
52044;DHT22;38053;53.100;6.078;2023-09-18T03:32:49;16.40;99.90
52044;DHT22;38053;53.100;6.078;2023-09-18T03:35:15;16.40;99.90
52044;DHT22;38053;53.100;6.078;2023-09-18T03:37:47;16.40;99.90
52044;DHT22;38053;53.100;6.078;2023-09-18T03:40:14;16.50;99.90
52044;DHT22;38053;53.100;6.078;2023-09-18T03:42:40;16.50;99.90
52044;DHT22;38053;53.100;6.078;2023-09-18T03:45:07;16.50;99.90
52044;DHT22;38053;53.100;6.078;2023-09-18T03:47:34;16.50;99.90
52044;DHT22;38053;53.100;6.078;2023-09-18T03:50:02;16.50;99.90
52044;DHT22;38053;53.100;6.078;2023-09-18T03:52:27;16.50;99.90
52044;DHT22;38053;53.100;6.078;2023-09-18T03:54:53;16.50;99.90
52044;DHT22;38053;53.100;6.078;2023-09-18T03:57:19;16.50;99.90
52044;DHT22;38053;53.100;6.078;2023-09-18T03:59:44;16.50;99.90
52044;DHT22;38053;53.100;6.078;2023-09-18T04:02:10;16.50;99.90
52044;DHT22;38053;53.100;6.078;2023-09-18T04:04:36;16.60;99.90
52044;DHT22;38053;53.100;6.078;2023-09-18T04:07:05;16.60;99.90
52044;DHT22;38053;53.100;6.078;2023-09-18T04:09:31;16.60;99.90
52044;DHT22;38053;53.100;6.078;2023-09-18T04:11:57;16.60;99.90
52044;DHT22;38053;53.100;6.078;2023-09-18T04:14:26;16.70;99.90
52044;DHT22;38053;53.100;6.078;2023-09-18T04:16:51;16.70;99.90
52044;DHT22;38053;53.100;6.078;2023-09-18T04:19:17;16.60;99.90
52044;DHT22;38053;53.100;6.078;2023-09-18T04:21:43;16.70;99.90
52044;DHT22;38053;53.100;6.078;2023-09-18T04:24:10;16.70;99.90
52044;DHT22;38053;53.100;6.078;2023-09-18T04:26:36;16.70;99.90
52044;DHT22;38053;53.100;6.078;2023-09-18T04:29:03;16.70;99.90
52044;DHT22;38053;53.100;6.078;2023-09-18T04:31:29;16.80;99.90
52044;DHT22;38053;53.100;6.078;2023-09-18T04:33:55;16.80;99.90
52044;DHT22;38053;53.100;6.078;2023-09-18T04:36:24;16.80;99.90
52044;DHT22;38053;53.100;6.078;2023-09-18T04:38:50;16.80;99.90
52044;DHT22;38053;53.100;6.078;2023-09-18T04:41:16;16.90;99.90
52044;DHT22;38053;53.100;6.078;2023-09-18T04:43:42;16.90;99.90
52044;DHT22;38053;53.100;6.078;2023-09-18T04:46:11;16.90;99.90
52044;DHT22;38053;53.100;6.078;2023-09-18T04:48:37;16.90;99.90
52044;DHT22;38053;53.100;6.078;2023-09-18T04:51:02;16.90;99.90
52044;DHT22;38053;53.100;6.078;2023-09-18T04:53:32;16.90;99.90
52044;DHT22;38053;53.100;6.078;2023-09-18T04:55:59;16.90;99.90
52044;DHT22;38053;53.100;6.078;2023-09-18T04:58:26;16.80;99.90
52044;DHT22;38053;53.100;6.078;2023-09-18T05:01:00;16.80;99.90
52044;DHT22;38053;53.100;6.078;2023-09-18T05:03:26;16.80;99.90
52044;DHT22;38053;53.100;6.078;2023-09-18T05:05:55;16.90;99.90
52044;DHT22;38053;53.100;6.078;2023-09-18T05:08:21;16.80;99.90
52044;DHT22;38053;53.100;6.078;2023-09-18T05:10:48;16.80;99.90
52044;DHT22;38053;53.100;6.078;2023-09-18T05:13:18;16.80;99.90
52044;DHT22;38053;53.100;6.078;2023-09-18T05:15:44;16.80;99.90
52044;DHT22;38053;53.100;6.078;2023-09-18T05:18:11;16.80;99.90
52044;DHT22;38053;53.100;6.078;2023-09-18T05:20:40;16.80;99.90
52044;DHT22;38053;53.100;6.078;2023-09-18T05:23:06;16.80;99.90
52044;DHT22;38053;53.100;6.078;2023-09-18T05:25:35;16.80;99.90
52044;DHT22;38053;53.100;6.078;2023-09-18T05:28:06;16.80;99.90
52044;DHT22;38053;53.100;6.078;2023-09-18T05:30:34;16.90;99.90
52044;DHT22;38053;53.100;6.078;2023-09-18T05:33:01;16.90;99.90
52044;DHT22;38053;53.100;6.078;2023-09-18T05:35:36;16.90;99.90
52044;DHT22;38053;53.100;6.078;2023-09-18T05:38:05;16.90;99.90
52044;DHT22;38053;53.100;6.078;2023-09-18T05:40:31;16.90;99.90
52044;DHT22;38053;53.100;6.078;2023-09-18T05:42:57;16.90;99.90
52044;DHT22;38053;53.100;6.078;2023-09-18T05:45:23;17.00;99.90
52044;DHT22;38053;53.100;6.078;2023-09-18T05:47:49;17.00;99.90
52044;DHT22;38053;53.100;6.078;2023-09-18T05:50:19;17.00;99.90
52044;DHT22;38053;53.100;6.078;2023-09-18T05:52:46;17.10;99.90
52044;DHT22;38053;53.100;6.078;2023-09-18T05:55:16;17.10;99.90
52044;DHT22;38053;53.100;6.078;2023-09-18T05:57:42;17.10;99.90
52044;DHT22;38053;53.100;6.078;2023-09-18T06:00:08;17.20;99.90
52044;DHT22;38053;53.100;6.078;2023-09-18T06:02:38;17.20;99.90
52044;DHT22;38053;53.100;6.078;2023-09-18T06:05:04;17.30;99.90
52044;DHT22;38053;53.100;6.078;2023-09-18T06:07:30;17.30;99.90
52044;DHT22;38053;53.100;6.078;2023-09-18T06:09:57;17.30;99.90
52044;DHT22;38053;53.100;6.078;2023-09-18T06:12:23;17.40;99.90
52044;DHT22;38053;53.100;6.078;2023-09-18T06:14:50;17.40;99.90
52044;DHT22;38053;53.100;6.078;2023-09-18T06:17:16;17.50;99.90
52044;DHT22;38053;53.100;6.078;2023-09-18T06:19:42;17.50;99.90
52044;DHT22;38053;53.100;6.078;2023-09-18T06:22:08;17.50;99.90
52044;DHT22;38053;53.100;6.078;2023-09-18T06:24:37;17.60;99.90
52044;DHT22;38053;53.100;6.078;2023-09-18T06:27:03;17.60;99.90
52044;DHT22;38053;53.100;6.078;2023-09-18T06:29:35;17.60;99.90
52044;DHT22;38053;53.100;6.078;2023-09-18T06:32:03;17.70;99.90
52044;DHT22;38053;53.100;6.078;2023-09-18T06:34:29;17.70;99.90
52044;DHT22;38053;53.100;6.078;2023-09-18T06:36:55;17.70;99.90
52044;DHT22;38053;53.100;6.078;2023-09-18T06:39:21;17.70;99.90
52044;DHT22;38053;53.100;6.078;2023-09-18T06:41:48;17.70;99.90
52044;DHT22;38053;53.100;6.078;2023-09-18T06:44:13;17.70;99.90
52044;DHT22;38053;53.100;6.078;2023-09-18T06:46:39;17.80;99.90
52044;DHT22;38053;53.100;6.078;2023-09-18T06:49:08;17.80;99.90
52044;DHT22;38053;53.100;6.078;2023-09-18T06:51:35;17.80;99.90
52044;DHT22;38053;53.100;6.078;2023-09-18T06:54:00;17.80;99.90
52044;DHT22;38053;53.100;6.078;2023-09-18T06:56:28;17.80;99.90
52044;DHT22;38053;53.100;6.078;2023-09-18T06:58:54;17.80;99.90
52044;DHT22;38053;53.100;6.078;2023-09-18T07:01:21;17.80;99.90
52044;DHT22;38053;53.100;6.078;2023-09-18T07:03:47;17.80;99.90
52044;DHT22;38053;53.100;6.078;2023-09-18T07:06:14;17.80;99.90
52044;DHT22;38053;53.100;6.078;2023-09-18T07:08:47;17.80;99.90
52044;DHT22;38053;53.100;6.078;2023-09-18T07:11:17;17.80;99.90
52044;DHT22;38053;53.100;6.078;2023-09-18T07:13:43;17.90;99.90
52044;DHT22;38053;53.100;6.078;2023-09-18T07:16:12;17.80;99.90
52044;DHT22;38053;53.100;6.078;2023-09-18T07:18:38;17.80;99.90
52044;DHT22;38053;53.100;6.078;2023-09-18T07:21:04;17.80;99.90
52044;DHT22;38053;53.100;6.078;2023-09-18T07:23:30;17.70;99.90
52044;DHT22;38053;53.100;6.078;2023-09-18T07:25:56;17.80;99.90
52044;DHT22;38053;53.100;6.078;2023-09-18T07:28:24;17.70;99.90
52044;DHT22;38053;53.100;6.078;2023-09-18T07:30:50;17.70;99.90
52044;DHT22;38053;53.100;6.078;2023-09-18T07:33:16;17.80;99.90
52044;DHT22;38053;53.100;6.078;2023-09-18T07:35:48;17.70;99.90
52044;DHT22;38053;53.100;6.078;2023-09-18T07:38:14;17.70;99.90
52044;DHT22;38053;53.100;6.078;2023-09-18T07:40:40;17.70;99.90
52044;DHT22;38053;53.100;6.078;2023-09-18T07:43:06;17.70;99.90
52044;DHT22;38053;53.100;6.078;2023-09-18T07:45:33;17.70;99.90
52044;DHT22;38053;53.100;6.078;2023-09-18T07:47:59;17.70;99.90
52044;DHT22;38053;53.100;6.078;2023-09-18T07:50:24;17.70;99.90
52044;DHT22;38053;53.100;6.078;2023-09-18T07:52:50;17.70;99.90
52044;DHT22;38053;53.100;6.078;2023-09-18T07:55:16;17.70;99.90
52044;DHT22;38053;53.100;6.078;2023-09-18T07:57:42;17.70;99.90
52044;DHT22;38053;53.100;6.078;2023-09-18T08:00:10;17.80;99.90
52044;DHT22;38053;53.100;6.078;2023-09-18T08:02:41;17.80;99.90
52044;DHT22;38053;53.100;6.078;2023-09-18T08:05:07;17.80;99.90
52044;DHT22;38053;53.100;6.078;2023-09-18T08:07:34;17.80;99.90
52044;DHT22;38053;53.100;6.078;2023-09-18T08:10:03;17.80;99.90
52044;DHT22;38053;53.100;6.078;2023-09-18T08:12:32;17.80;99.90
52044;DHT22;38053;53.100;6.078;2023-09-18T08:15:01;17.80;99.90
52044;DHT22;38053;53.100;6.078;2023-09-18T08:17:28;17.90;99.90
52044;DHT22;38053;53.100;6.078;2023-09-18T08:19:54;17.90;99.90
52044;DHT22;38053;53.100;6.078;2023-09-18T08:22:21;17.90;99.90
52044;DHT22;38053;53.100;6.078;2023-09-18T08:24:51;17.90;99.90
52044;DHT22;38053;53.100;6.078;2023-09-18T08:27:18;17.90;99.90
52044;DHT22;38053;53.100;6.078;2023-09-18T08:29:45;18.00;99.90
52044;DHT22;38053;53.100;6.078;2023-09-18T08:32:12;18.00;99.90
52044;DHT22;38053;53.100;6.078;2023-09-18T08:34:38;18.00;99.90
52044;DHT22;38053;53.100;6.078;2023-09-18T08:37:05;18.10;99.90
52044;DHT22;38053;53.100;6.078;2023-09-18T08:39:31;18.20;99.90
52044;DHT22;38053;53.100;6.078;2023-09-18T08:42:03;18.20;99.90
52044;DHT22;38053;53.100;6.078;2023-09-18T08:44:29;18.30;99.90
52044;DHT22;38053;53.100;6.078;2023-09-18T08:46:56;18.40;99.90
52044;DHT22;38053;53.100;6.078;2023-09-18T08:49:26;18.50;99.90
52044;DHT22;38053;53.100;6.078;2023-09-18T08:51:55;18.60;99.90
52044;DHT22;38053;53.100;6.078;2023-09-18T08:54:24;18.70;99.90
52044;DHT22;38053;53.100;6.078;2023-09-18T08:56:53;18.80;99.90
52044;DHT22;38053;53.100;6.078;2023-09-18T08:59:21;18.90;99.90
52044;DHT22;38053;53.100;6.078;2023-09-18T09:01:47;18.90;99.90
52044;DHT22;38053;53.100;6.078;2023-09-18T09:04:13;18.90;99.90
52044;DHT22;38053;53.100;6.078;2023-09-18T09:06:41;19.00;99.90
52044;DHT22;38053;53.100;6.078;2023-09-18T09:09:06;19.00;99.90
52044;DHT22;38053;53.100;6.078;2023-09-18T09:11:39;19.00;99.90
52044;DHT22;38053;53.100;6.078;2023-09-18T09:14:13;19.00;99.90
52044;DHT22;38053;53.100;6.078;2023-09-18T09:16:51;19.00;99.90
52044;DHT22;38053;53.100;6.078;2023-09-18T09:19:18;19.00;99.90
52044;DHT22;38053;53.100;6.078;2023-09-18T09:21:46;19.10;99.90
52044;DHT22;38053;53.100;6.078;2023-09-18T09:24:12;19.10;99.90
52044;DHT22;38053;53.100;6.078;2023-09-18T09:26:41;19.10;99.90
52044;DHT22;38053;53.100;6.078;2023-09-18T09:29:20;19.10;99.90
52044;DHT22;38053;53.100;6.078;2023-09-18T09:31:46;19.10;99.90
52044;DHT22;38053;53.100;6.078;2023-09-18T09:34:24;19.10;99.90
52044;DHT22;38053;53.100;6.078;2023-09-18T09:36:56;19.20;99.90
52044;DHT22;38053;53.100;6.078;2023-09-18T09:39:22;19.20;99.90
52044;DHT22;38053;53.100;6.078;2023-09-18T09:41:55;19.30;99.90
52044;DHT22;38053;53.100;6.078;2023-09-18T09:44:21;19.40;99.90
52044;DHT22;38053;53.100;6.078;2023-09-18T09:46:47;19.50;99.90
52044;DHT22;38053;53.100;6.078;2023-09-18T09:49:15;19.50;99.90
52044;DHT22;38053;53.100;6.078;2023-09-18T09:51:42;19.60;99.90
52044;DHT22;38053;53.100;6.078;2023-09-18T09:54:07;19.70;99.90
52044;DHT22;38053;53.100;6.078;2023-09-18T09:56:44;19.80;99.90
52044;DHT22;38053;53.100;6.078;2023-09-18T09:59:11;19.80;99.90
52044;DHT22;38053;53.100;6.078;2023-09-18T10:01:38;19.80;99.90
52044;DHT22;38053;53.100;6.078;2023-09-18T10:04:09;19.90;99.90
52044;DHT22;38053;53.100;6.078;2023-09-18T10:06:48;19.90;99.90
52044;DHT22;38053;53.100;6.078;2023-09-18T10:09:17;20.00;99.90
52044;DHT22;38053;53.100;6.078;2023-09-18T10:11:54;20.10;99.90
52044;DHT22;38053;53.100;6.078;2023-09-18T10:14:32;20.20;99.90
52044;DHT22;38053;53.100;6.078;2023-09-18T10:17:09;20.30;99.90
52044;DHT22;38053;53.100;6.078;2023-09-18T10:20:08;20.40;99.90
52044;DHT22;38053;53.100;6.078;2023-09-18T10:22:38;20.40;99.90
52044;DHT22;38053;53.100;6.078;2023-09-18T10:25:14;20.40;99.90
52044;DHT22;38053;53.100;6.078;2023-09-18T10:27:47;20.40;99.90
52044;DHT22;38053;53.100;6.078;2023-09-18T10:30:20;20.40;99.90
52044;DHT22;38053;53.100;6.078;2023-09-18T10:32:49;20.40;99.90
52044;DHT22;38053;53.100;6.078;2023-09-18T10:35:15;20.50;99.90
52044;DHT22;38053;53.100;6.078;2023-09-18T10:37:46;20.70;99.90
52044;DHT22;38053;53.100;6.078;2023-09-18T10:40:12;21.00;99.90
52044;DHT22;38053;53.100;6.078;2023-09-18T10:42:39;21.20;99.90
52044;DHT22;38053;53.100;6.078;2023-09-18T10:45:09;21.40;99.90
52044;DHT22;38053;53.100;6.078;2023-09-18T10:47:40;21.70;99.90
52044;DHT22;38053;53.100;6.078;2023-09-18T10:50:06;21.80;99.90
52044;DHT22;38053;53.100;6.078;2023-09-18T10:52:43;21.80;99.90
52044;DHT22;38053;53.100;6.078;2023-09-18T10:55:14;21.80;99.90
52044;DHT22;38053;53.100;6.078;2023-09-18T10:58:09;21.70;99.90
52044;DHT22;38053;53.100;6.078;2023-09-18T11:00:35;21.60;99.90
52044;DHT22;38053;53.100;6.078;2023-09-18T11:03:22;21.50;99.90
52044;DHT22;38053;53.100;6.078;2023-09-18T11:05:48;21.40;99.90
52044;DHT22;38053;53.100;6.078;2023-09-18T11:08:45;21.50;99.90
52044;DHT22;38053;53.100;6.078;2023-09-18T11:11:13;21.70;99.90
52044;DHT22;38053;53.100;6.078;2023-09-18T11:13:45;21.70;99.90
52044;DHT22;38053;53.100;6.078;2023-09-18T11:16:32;22.00;99.90
52044;DHT22;38053;53.100;6.078;2023-09-18T11:21:30;22.50;99.90
52044;DHT22;38053;53.100;6.078;2023-09-18T11:24:16;22.70;99.90
52044;DHT22;38053;53.100;6.078;2023-09-18T11:26:44;22.80;99.90
52044;DHT22;38053;53.100;6.078;2023-09-18T11:29:14;22.70;99.90
52044;DHT22;38053;53.100;6.078;2023-09-18T11:31:53;22.60;99.90
52044;DHT22;38053;53.100;6.078;2023-09-18T11:34:29;22.70;99.90
52044;DHT22;38053;53.100;6.078;2023-09-18T11:37:01;22.80;99.90
52044;DHT22;38053;53.100;6.078;2023-09-18T11:39:40;22.70;99.90
52044;DHT22;38053;53.100;6.078;2023-09-18T11:42:22;22.80;99.90
52044;DHT22;38053;53.100;6.078;2023-09-18T11:44:59;23.20;99.90
52044;DHT22;38053;53.100;6.078;2023-09-18T11:47:25;23.30;99.90
52044;DHT22;38053;53.100;6.078;2023-09-18T11:52:29;24.00;99.90
52044;DHT22;38053;53.100;6.078;2023-09-18T11:54:59;24.30;99.90
52044;DHT22;38053;53.100;6.078;2023-09-18T11:57:25;24.50;99.90
52044;DHT22;38053;53.100;6.078;2023-09-18T11:59:51;24.40;99.90
52044;DHT22;38053;53.100;6.078;2023-09-18T12:02:29;24.20;99.90
52044;DHT22;38053;53.100;6.078;2023-09-18T12:05:13;23.90;99.90
52044;DHT22;38053;53.100;6.078;2023-09-18T12:07:40;24.00;99.90
52044;DHT22;38053;53.100;6.078;2023-09-18T12:10:09;24.00;99.90
52044;DHT22;38053;53.100;6.078;2023-09-18T12:12:35;24.10;99.90
52044;DHT22;38053;53.100;6.078;2023-09-18T12:15:01;24.50;99.90
52044;DHT22;38053;53.100;6.078;2023-09-18T12:17:27;24.90;99.90
52044;DHT22;38053;53.100;6.078;2023-09-18T12:19:53;25.10;99.90
52044;DHT22;38053;53.100;6.078;2023-09-18T12:22:29;25.00;99.90
52044;DHT22;38053;53.100;6.078;2023-09-18T12:25:28;24.80;99.90
52044;DHT22;38053;53.100;6.078;2023-09-18T12:27:55;24.70;99.90
52044;DHT22;38053;53.100;6.078;2023-09-18T12:30:21;24.60;99.90
52044;DHT22;38053;53.100;6.078;2023-09-18T12:32:50;24.50;99.90
52044;DHT22;38053;53.100;6.078;2023-09-18T12:35:16;24.30;99.90
52044;DHT22;38053;53.100;6.078;2023-09-18T12:37:44;23.90;99.90
52044;DHT22;38053;53.100;6.078;2023-09-18T12:40:29;23.80;99.90
52044;DHT22;38053;53.100;6.078;2023-09-18T12:42:59;23.60;99.90
52044;DHT22;38053;53.100;6.078;2023-09-18T12:45:29;23.70;99.90
52044;DHT22;38053;53.100;6.078;2023-09-18T12:47:56;23.80;99.90
52044;DHT22;38053;53.100;6.078;2023-09-18T12:50:22;23.80;99.90
52044;DHT22;38053;53.100;6.078;2023-09-18T12:52:48;23.90;99.90
52044;DHT22;38053;53.100;6.078;2023-09-18T12:55:21;24.20;99.90
52044;DHT22;38053;53.100;6.078;2023-09-18T12:57:48;24.30;99.90
52044;DHT22;38053;53.100;6.078;2023-09-18T13:00:17;24.40;99.90
52044;DHT22;38053;53.100;6.078;2023-09-18T13:02:45;24.30;99.90
52044;DHT22;38053;53.100;6.078;2023-09-18T13:05:11;24.30;99.90
52044;DHT22;38053;53.100;6.078;2023-09-18T13:07:44;24.30;99.90
52044;DHT22;38053;53.100;6.078;2023-09-18T13:10:13;24.40;99.90
52044;DHT22;38053;53.100;6.078;2023-09-18T13:12:51;24.20;99.90
52044;DHT22;38053;53.100;6.078;2023-09-18T13:15:31;23.90;99.90
52044;DHT22;38053;53.100;6.078;2023-09-18T13:18:16;23.70;99.90
52044;DHT22;38053;53.100;6.078;2023-09-18T13:20:43;23.60;99.90
52044;DHT22;38053;53.100;6.078;2023-09-18T13:23:09;23.50;99.90
52044;DHT22;38053;53.100;6.078;2023-09-18T13:25:41;23.50;99.90
52044;DHT22;38053;53.100;6.078;2023-09-18T13:28:10;23.50;99.90
52044;DHT22;38053;53.100;6.078;2023-09-18T13:30:37;23.60;99.90
52044;DHT22;38053;53.100;6.078;2023-09-18T13:33:06;23.60;99.90
52044;DHT22;38053;53.100;6.078;2023-09-18T13:35:38;23.80;99.90
52044;DHT22;38053;53.100;6.078;2023-09-18T13:38:05;23.90;99.90
52044;DHT22;38053;53.100;6.078;2023-09-18T13:40:32;23.70;99.90
52044;DHT22;38053;53.100;6.078;2023-09-18T13:42:59;23.40;99.90
52044;DHT22;38053;53.100;6.078;2023-09-18T13:45:25;23.30;99.90
52044;DHT22;38053;53.100;6.078;2023-09-18T13:47:51;23.30;99.90
52044;DHT22;38053;53.100;6.078;2023-09-18T13:50:16;23.30;99.90
52044;DHT22;38053;53.100;6.078;2023-09-18T13:52:42;23.40;99.90
52044;DHT22;38053;53.100;6.078;2023-09-18T13:55:08;23.40;99.90
52044;DHT22;38053;53.100;6.078;2023-09-18T13:57:35;23.30;99.90
52044;DHT22;38053;53.100;6.078;2023-09-18T14:00:03;23.20;99.90
52044;DHT22;38053;53.100;6.078;2023-09-18T14:02:35;23.20;99.90
52044;DHT22;38053;53.100;6.078;2023-09-18T14:05:00;23.10;99.90
52044;DHT22;38053;53.100;6.078;2023-09-18T14:07:26;23.20;99.90
52044;DHT22;38053;53.100;6.078;2023-09-18T14:09:52;23.20;99.90
52044;DHT22;38053;53.100;6.078;2023-09-18T14:12:18;23.20;99.90
52044;DHT22;38053;53.100;6.078;2023-09-18T14:14:47;23.10;99.90
52044;DHT22;38053;53.100;6.078;2023-09-18T14:17:13;23.00;99.90
52044;DHT22;38053;53.100;6.078;2023-09-18T14:19:38;22.90;99.90
52044;DHT22;38053;53.100;6.078;2023-09-18T14:22:05;23.00;99.90
52044;DHT22;38053;53.100;6.078;2023-09-18T14:24:32;23.00;99.90
52044;DHT22;38053;53.100;6.078;2023-09-18T14:27:08;23.00;99.90
52044;DHT22;38053;53.100;6.078;2023-09-18T14:29:37;23.00;99.90
52044;DHT22;38053;53.100;6.078;2023-09-18T14:32:03;23.10;99.90
52044;DHT22;38053;53.100;6.078;2023-09-18T14:34:30;23.10;99.90
52044;DHT22;38053;53.100;6.078;2023-09-18T14:36:56;23.10;99.90
52044;DHT22;38053;53.100;6.078;2023-09-18T14:39:22;22.90;99.90
52044;DHT22;38053;53.100;6.078;2023-09-18T14:41:48;22.80;99.90
52044;DHT22;38053;53.100;6.078;2023-09-18T14:44:15;22.70;99.90
52044;DHT22;38053;53.100;6.078;2023-09-18T14:46:40;22.70;99.90
52044;DHT22;38053;53.100;6.078;2023-09-18T14:49:09;22.70;99.90
52044;DHT22;38053;53.100;6.078;2023-09-18T14:51:35;22.70;99.90
52044;DHT22;38053;53.100;6.078;2023-09-18T14:54:01;22.60;99.90
52044;DHT22;38053;53.100;6.078;2023-09-18T14:56:30;22.60;99.90
52044;DHT22;38053;53.100;6.078;2023-09-18T14:58:56;22.60;99.90
52044;DHT22;38053;53.100;6.078;2023-09-18T15:01:23;22.60;99.90
52044;DHT22;38053;53.100;6.078;2023-09-18T15:03:52;22.60;99.90
52044;DHT22;38053;53.100;6.078;2023-09-18T15:06:17;22.60;99.90
52044;DHT22;38053;53.100;6.078;2023-09-18T15:08:43;22.50;99.90
52044;DHT22;38053;53.100;6.078;2023-09-18T15:11:10;22.50;99.90
52044;DHT22;38053;53.100;6.078;2023-09-18T15:13:39;22.50;99.90
52044;DHT22;38053;53.100;6.078;2023-09-18T15:16:05;22.40;99.90
52044;DHT22;38053;53.100;6.078;2023-09-18T15:18:31;22.40;99.90
52044;DHT22;38053;53.100;6.078;2023-09-18T15:20:57;22.30;99.90
52044;DHT22;38053;53.100;6.078;2023-09-18T15:23:26;22.30;99.90
52044;DHT22;38053;53.100;6.078;2023-09-18T15:25:57;22.20;99.90
52044;DHT22;38053;53.100;6.078;2023-09-18T15:28:23;22.10;99.90
52044;DHT22;38053;53.100;6.078;2023-09-18T15:30:53;22.00;99.90
52044;DHT22;38053;53.100;6.078;2023-09-18T15:33:19;21.90;99.90
52044;DHT22;38053;53.100;6.078;2023-09-18T15:35:48;21.80;99.90
52044;DHT22;38053;53.100;6.078;2023-09-18T15:38:14;21.70;99.90
52044;DHT22;38053;53.100;6.078;2023-09-18T15:40:42;21.60;99.90
52044;DHT22;38053;53.100;6.078;2023-09-18T15:43:08;21.50;99.90
52044;DHT22;38053;53.100;6.078;2023-09-18T15:45:36;21.50;99.90